Time;durP1;ratioP1;P1;durP2;ratioP2;P2;SDS_P1;SDS_P2;PMS_P1;PMS_P2;Temp;Humidity;BMP_temperature;BMP_pressure;BME280_temperature;BME280_humidity;BME280_pressure;Samples;Min_cycle;Max_cycle;Signal;HPM_P1;HPM_P2
2023/09/17 00:00:41;;;;;;;;;38.33;32.00;;;;;;;;5075827;27;45577;-79
2023/09/17 00:03:07;;;;;;;;;35.00;28.00;;;;;;;;5077021;27;44974;-79
2023/09/17 00:05:33;;;;;;;;;35.67;32.67;;;;;;;;5074426;27;46583;-78
2023/09/17 00:07:58;;;;;;;;;29.33;29.33;;;;;;;;5082869;27;45799;-78
2023/09/17 00:10:23;;;;;;;;;32.00;28.33;;;;;;;;5079979;27;46060;-79
2023/09/17 00:12:53;;;;;;;;;29.33;27.33;;;;;;;;5081537;27;47122;-79
2023/09/17 00:15:18;;;;;;;;;23.67;23.67;;;;;;;;5077154;27;46227;-79
2023/09/17 00:17:43;;;;;;;;;35.00;31.33;;;;;;;;5078040;27;45428;-79
2023/09/17 00:20:10;;;;;;;;;33.33;29.67;;;;;;;;5083694;27;45735;-80
2023/09/17 00:22:36;;;;;;;;;31.33;27.00;;;;;;;;5082343;27;46143;-80
2023/09/17 00:25:01;;;;;;;;;29.67;26.00;;;;;;;;5078923;27;46183;-79
2023/09/17 00:27:26;;;;;;;;;29.00;27.67;;;;;;;;5080009;27;45705;-80
2023/09/17 00:29:51;;;;;;;;;34.67;25.67;;;;;;;;5085566;27;45509;-79
2023/09/17 00:32:17;;;;;;;;;28.67;26.67;;;;;;;;5076697;27;45374;-80
2023/09/17 00:34:42;;;;;;;;;28.33;25.33;;;;;;;;5075451;27;45504;-80
2023/09/17 00:37:07;;;;;;;;;31.67;26.67;;;;;;;;5076892;27;46000;-80
2023/09/17 00:39:33;;;;;;;;;23.67;22.33;;;;;;;;5077609;27;45725;-78
2023/09/17 00:41:58;;;;;;;;;24.00;21.00;;;;;;;;5079767;27;45749;-79
2023/09/17 00:44:23;;;;;;;;;29.00;27.33;;;;;;;;5077800;27;45634;-80
2023/09/17 00:46:49;;;;;;;;;28.67;22.33;;;;;;;;5089611;27;45742;-78
2023/09/17 00:49:15;;;;;;;;;24.00;21.33;;;;;;;;5079483;27;45738;-79
2023/09/17 00:51:41;;;;;;;;;25.67;22.67;;;;;;;;5088016;27;45736;-79
2023/09/17 00:54:07;;;;;;;;;27.00;23.67;;;;;;;;5079553;27;46454;-79
2023/09/17 00:56:33;;;;;;;;;27.67;24.67;;;;;;;;5078386;27;45901;-80
2023/09/17 00:58:59;;;;;;;;;21.33;21.00;;;;;;;;5080574;27;45417;-79
2023/09/17 01:01:24;;;;;;;;;29.00;27.00;;;;;;;;5076914;27;45706;-78
2023/09/17 01:03:51;;;;;;;;;31.33;30.33;;;;;;;;5076645;27;45498;-79
2023/09/17 01:06:17;;;;;;;;;34.67;27.33;;;;;;;;5079909;27;45603;-79
2023/09/17 01:08:42;;;;;;;;;32.33;29.33;;;;;;;;5076366;27;45734;-78
2023/09/17 01:11:09;;;;;;;;;26.00;24.00;;;;;;;;5088898;27;45768;-79
2023/09/17 01:13:39;;;;;;;;;24.00;23.67;;;;;;;;5080852;27;45482;-79
2023/09/17 01:16:05;;;;;;;;;28.67;24.67;;;;;;;;5079983;27;45422;-79
2023/09/17 01:18:31;;;;;;;;;29.33;28.33;;;;;;;;5080997;27;45437;-79
2023/09/17 01:21:06;;;;;;;;;31.33;25.00;;;;;;;;5083120;27;45909;-80
2023/09/17 01:23:38;;;;;;;;;28.67;24.00;;;;;;;;5084770;27;46592;-78
2023/09/17 01:26:12;;;;;;;;;26.67;24.33;;;;;;;;5077946;27;45636;-78
2023/09/17 01:28:37;;;;;;;;;25.67;20.00;;;;;;;;5088287;27;45867;-80
2023/09/17 01:31:03;;;;;;;;;24.67;24.33;;;;;;;;5094395;27;45685;-80
2023/09/17 01:33:29;;;;;;;;;27.00;26.00;;;;;;;;5082656;27;47100;-80
2023/09/17 01:35:59;;;;;;;;;26.00;21.67;;;;;;;;5094102;27;45740;-79
2023/09/17 01:38:31;;;;;;;;;29.67;21.33;;;;;;;;5088224;27;46056;-80
2023/09/17 01:40:57;;;;;;;;;23.67;22.67;;;;;;;;5077782;27;45836;-80
2023/09/17 01:43:23;;;;;;;;;24.00;22.33;;;;;;;;5074726;27;45753;-80
2023/09/17 01:45:50;;;;;;;;;22.33;21.67;;;;;;;;5084503;27;45740;-80
2023/09/17 01:48:16;;;;;;;;;22.00;20.67;;;;;;;;5082675;27;45532;-79
2023/09/17 01:50:42;;;;;;;;;26.33;23.00;;;;;;;;5081216;27;45387;-79
2023/09/17 01:53:07;;;;;;;;;25.67;21.33;;;;;;;;5072804;27;46187;-80
2023/09/17 01:55:33;;;;;;;;;23.33;21.00;;;;;;;;5073883;27;45564;-81
2023/09/17 01:57:58;;;;;;;;;22.67;22.00;;;;;;;;5075591;27;45569;-80
2023/09/17 02:00:24;;;;;;;;;26.33;22.00;;;;;;;;5077219;27;45467;-80
2023/09/17 02:02:50;;;;;;;;;21.00;19.33;;;;;;;;5081231;27;46016;-80
2023/09/17 02:05:16;;;;;;;;;24.33;21.33;;;;;;;;5082861;27;45470;-80
2023/09/17 02:07:43;;;;;;;;;21.33;20.33;;;;;;;;5078826;27;45819;-79
2023/09/17 02:10:08;;;;;;;;;24.67;24.67;;;;;;;;5077848;27;45512;-80
2023/09/17 02:12:33;;;;;;;;;26.00;20.33;;;;;;;;5078679;27;46251;-79
2023/09/17 02:14:58;;;;;;;;;23.67;20.00;;;;;;;;5084228;27;45527;-80
2023/09/17 02:17:23;;;;;;;;;23.67;21.67;;;;;;;;5089512;27;45582;-79
2023/09/17 02:19:49;;;;;;;;;22.00;19.67;;;;;;;;5083430;27;46208;-80
2023/09/17 02:22:14;;;;;;;;;23.00;23.00;;;;;;;;5075089;27;46710;-81
2023/09/17 02:24:39;;;;;;;;;22.67;20.00;;;;;;;;5078220;27;45921;-81
2023/09/17 02:27:04;;;;;;;;;22.67;20.33;;;;;;;;5076630;27;45564;-78
2023/09/17 02:29:30;;;;;;;;;18.33;17.33;;;;;;;;5075702;27;45618;-79
2023/09/17 02:31:55;;;;;;;;;19.33;17.67;;;;;;;;5075660;27;45659;-78
2023/09/17 02:34:20;;;;;;;;;21.00;17.67;;;;;;;;5071176;27;45867;-80
2023/09/17 02:36:46;;;;;;;;;22.67;19.00;;;;;;;;5081315;27;46017;-79
2023/09/17 02:39:11;;;;;;;;;20.67;18.33;;;;;;;;5091440;27;45849;-80
2023/09/17 02:41:37;;;;;;;;;22.00;20.33;;;;;;;;5088870;27;46505;-79
2023/09/17 02:44:03;;;;;;;;;20.00;17.33;;;;;;;;5083171;27;45678;-79
2023/09/17 02:46:28;;;;;;;;;16.33;15.67;;;;;;;;5083827;27;45750;-78
2023/09/17 02:48:54;;;;;;;;;19.00;18.00;;;;;;;;5087270;27;45475;-78
2023/09/17 02:51:19;;;;;;;;;18.67;18.33;;;;;;;;5087026;27;46136;-80
2023/09/17 02:53:46;;;;;;;;;24.33;20.00;;;;;;;;5089298;27;45507;-78
2023/09/17 02:56:12;;;;;;;;;19.00;15.33;;;;;;;;5093875;27;45853;-79
2023/09/17 02:58:38;;;;;;;;;17.33;15.67;;;;;;;;5084811;27;45812;-81
2023/09/17 03:01:14;;;;;;;;;16.67;16.00;;;;;;;;5081510;27;46889;-79
2023/09/17 03:03:40;;;;;;;;;17.00;17.00;;;;;;;;5087082;27;45447;-81
2023/09/17 03:06:05;;;;;;;;;20.00;16.33;;;;;;;;5075462;27;45439;-79
2023/09/17 03:08:31;;;;;;;;;16.00;12.67;;;;;;;;5075462;27;45665;-80
2023/09/17 03:10:59;;;;;;;;;22.67;18.00;;;;;;;;5087482;27;45636;-79
2023/09/17 03:13:24;;;;;;;;;20.67;16.33;;;;;;;;5087604;27;45873;-78
2023/09/17 03:15:55;;;;;;;;;18.33;14.67;;;;;;;;5080066;27;45461;-79
2023/09/17 03:18:20;;;;;;;;;19.67;16.33;;;;;;;;5087213;27;45832;-79
2023/09/17 03:20:49;;;;;;;;;23.33;19.33;;;;;;;;5084852;27;45520;-80
2023/09/17 03:23:15;;;;;;;;;19.67;16.33;;;;;;;;5080710;27;45653;-81
2023/09/17 03:25:40;;;;;;;;;18.33;18.00;;;;;;;;5081027;27;45377;-79
2023/09/17 03:28:05;;;;;;;;;17.00;17.00;;;;;;;;5078577;27;45908;-79
2023/09/17 03:30:31;;;;;;;;;18.00;17.00;;;;;;;;5081357;27;46477;-79
2023/09/17 03:32:57;;;;;;;;;17.00;14.00;;;;;;;;5086289;27;45765;-80
2023/09/17 03:35:23;;;;;;;;;22.67;20.00;;;;;;;;5084455;27;45883;-79
2023/09/17 03:37:48;;;;;;;;;21.00;19.33;;;;;;;;5092373;27;45563;-80
2023/09/17 03:40:14;;;;;;;;;20.00;17.00;;;;;;;;5086836;27;46597;-80
2023/09/17 03:42:40;;;;;;;;;17.33;15.00;;;;;;;;5087998;27;45466;-79
2023/09/17 03:45:06;;;;;;;;;19.00;15.33;;;;;;;;5084433;27;45743;-80
2023/09/17 03:47:32;;;;;;;;;20.33;15.00;;;;;;;;5082539;27;46462;-79
2023/09/17 03:49:57;;;;;;;;;16.67;16.67;;;;;;;;5090938;27;47573;-79
2023/09/17 03:52:23;;;;;;;;;18.00;17.67;;;;;;;;5086600;27;45616;-80
2023/09/17 03:54:48;;;;;;;;;15.00;13.33;;;;;;;;5085767;27;45378;-79
2023/09/17 03:57:14;;;;;;;;;16.33;14.33;;;;;;;;5091528;27;45682;-78
2023/09/17 03:59:39;;;;;;;;;17.33;12.00;;;;;;;;5083523;27;45703;-80
2023/09/17 04:02:04;;;;;;;;;13.00;13.00;;;;;;;;5089122;27;45638;-80
2023/09/17 04:04:30;;;;;;;;;16.00;14.00;;;;;;;;5089836;27;45544;-80
2023/09/17 04:06:56;;;;;;;;;9.67;9.67;;;;;;;;5079484;27;45742;-79
2023/09/17 04:09:21;;;;;;;;;17.00;14.33;;;;;;;;5079583;27;47742;-81
2023/09/17 04:11:47;;;;;;;;;16.00;13.67;;;;;;;;5083584;27;45524;-80
2023/09/17 04:14:12;;;;;;;;;13.67;13.67;;;;;;;;5085783;27;45530;-80
2023/09/17 04:16:37;;;;;;;;;11.00;10.00;;;;;;;;5086162;27;45407;-81
2023/09/17 04:19:02;;;;;;;;;15.33;11.67;;;;;;;;5090727;27;45441;-81
2023/09/17 04:21:28;;;;;;;;;11.67;9.00;;;;;;;;5079301;27;45851;-80
2023/09/17 04:23:53;;;;;;;;;15.67;12.00;;;;;;;;5084965;27;45746;-80
2023/09/17 04:26:18;;;;;;;;;10.00;10.00;;;;;;;;5084019;27;45688;-80
2023/09/17 04:28:46;;;;;;;;;13.67;12.67;;;;;;;;5086524;27;45465;-78
2023/09/17 04:31:11;;;;;;;;;13.33;12.33;;;;;;;;5075744;27;45757;-81
2023/09/17 04:33:36;;;;;;;;;12.33;11.33;;;;;;;;5090272;27;45666;-79
2023/09/17 04:36:03;;;;;;;;;17.33;14.00;;;;;;;;5081531;27;45711;-79
2023/09/17 04:38:28;;;;;;;;;10.67;10.67;;;;;;;;5085623;27;48654;-79
2023/09/17 04:40:53;;;;;;;;;16.00;12.67;;;;;;;;5075716;27;45437;-78
2023/09/17 04:43:20;;;;;;;;;11.00;10.67;;;;;;;;5085443;27;45717;-78
2023/09/17 04:45:45;;;;;;;;;17.33;14.33;;;;;;;;5090138;27;45599;-81
2023/09/17 04:48:11;;;;;;;;;11.00;10.67;;;;;;;;5094930;27;46429;-80
2023/09/17 04:50:36;;;;;;;;;11.33;11.33;;;;;;;;5080485;27;45457;-80
2023/09/17 04:53:02;;;;;;;;;12.33;11.33;;;;;;;;5078873;27;45437;-78
2023/09/17 04:55:27;;;;;;;;;12.33;10.67;;;;;;;;5093832;27;45763;-80
2023/09/17 04:57:52;;;;;;;;;13.00;12.00;;;;;;;;5086960;27;45992;-80
2023/09/17 05:00:20;;;;;;;;;14.00;13.67;;;;;;;;5091517;27;45724;-79
2023/09/17 05:02:45;;;;;;;;;16.33;11.67;;;;;;;;5085273;27;45654;-81
2023/09/17 05:05:11;;;;;;;;;14.33;13.67;;;;;;;;5087461;27;45887;-80
2023/09/17 05:07:42;;;;;;;;;11.00;9.33;;;;;;;;5087582;27;45359;-83
2023/09/17 05:10:07;;;;;;;;;15.67;14.67;;;;;;;;5086703;27;45530;-78
2023/09/17 05:12:32;;;;;;;;;13.33;13.33;;;;;;;;5088321;27;45818;-79
2023/09/17 05:14:58;;;;;;;;;7.33;7.33;;;;;;;;5078251;27;45495;-81
2023/09/17 05:17:23;;;;;;;;;11.33;10.33;;;;;;;;5096307;27;45444;-81
2023/09/17 05:19:48;;;;;;;;;12.67;8.67;;;;;;;;5096782;27;45486;-81
2023/09/17 05:22:14;;;;;;;;;13.67;11.33;;;;;;;;5094356;27;45521;-81
2023/09/17 05:24:39;;;;;;;;;11.67;10.00;;;;;;;;5082850;27;45736;-81
2023/09/17 05:27:04;;;;;;;;;10.67;10.67;;;;;;;;5084931;27;46554;-80
2023/09/17 05:29:30;;;;;;;;;12.33;11.33;;;;;;;;5085980;27;45784;-80
2023/09/17 05:31:55;;;;;;;;;13.00;11.00;;;;;;;;5087159;27;45433;-81
2023/09/17 05:34:20;;;;;;;;;10.33;8.67;;;;;;;;5091729;27;45516;-81
2023/09/17 05:36:45;;;;;;;;;9.67;9.67;;;;;;;;5094192;27;45733;-81
2023/09/17 05:39:11;;;;;;;;;12.33;12.33;;;;;;;;5082944;27;45475;-80
2023/09/17 05:41:37;;;;;;;;;12.33;9.00;;;;;;;;5094252;27;45517;-81
2023/09/17 05:44:03;;;;;;;;;12.67;11.67;;;;;;;;5091283;27;45699;-81
2023/09/17 05:46:28;;;;;;;;;13.00;12.67;;;;;;;;5078812;27;47535;-83
2023/09/17 05:48:54;;;;;;;;;11.33;11.00;;;;;;;;5091850;27;45631;-81
2023/09/17 05:51:19;;;;;;;;;8.00;6.67;;;;;;;;5074005;27;45425;-81
2023/09/17 05:53:44;;;;;;;;;9.67;9.00;;;;;;;;5082217;27;45898;-82
2023/09/17 05:56:11;;;;;;;;;17.00;12.33;;;;;;;;5085440;27;46969;-80
2023/09/17 05:58:36;;;;;;;;;12.67;11.67;;;;;;;;5085217;27;45759;-81
2023/09/17 06:01:01;;;;;;;;;12.67;9.00;;;;;;;;5082018;27;45832;-81
2023/09/17 06:03:26;;;;;;;;;8.67;8.67;;;;;;;;5089934;27;45534;-81
2023/09/17 06:05:55;;;;;;;;;11.67;11.33;;;;;;;;5093129;27;47645;-81
2023/09/17 06:08:21;;;;;;;;;13.00;9.33;;;;;;;;5085631;27;46004;-81
2023/09/17 06:10:46;;;;;;;;;8.33;7.00;;;;;;;;5084464;27;45702;-82
2023/09/17 06:13:11;;;;;;;;;11.00;10.67;;;;;;;;5085574;27;47233;-80
2023/09/17 06:15:36;;;;;;;;;8.67;8.67;;;;;;;;5092914;27;46188;-80
2023/09/17 06:18:02;;;;;;;;;10.33;9.00;;;;;;;;5090637;27;45488;-81
2023/09/17 06:20:28;;;;;;;;;14.00;11.33;;;;;;;;5092100;27;45300;-82
2023/09/17 06:22:53;;;;;;;;;10.00;8.33;;;;;;;;5083506;27;46103;-82
2023/09/17 06:25:19;;;;;;;;;11.33;10.67;;;;;;;;5087385;27;45640;-80
2023/09/17 06:27:44;;;;;;;;;9.67;9.67;;;;;;;;5083626;27;45715;-79
2023/09/17 06:30:10;;;;;;;;;8.00;8.00;;;;;;;;5088915;27;45738;-80
2023/09/17 06:32:35;;;;;;;;;16.33;13.00;;;;;;;;5091157;27;45616;-81
2023/09/17 06:35:02;;;;;;;;;13.33;11.67;;;;;;;;5088355;27;45771;-82
2023/09/17 06:37:28;;;;;;;;;11.67;10.00;;;;;;;;5094122;27;45103;-79
2023/09/17 06:39:54;;;;;;;;;15.33;14.00;;;;;;;;5099271;27;45667;-85
2023/09/17 06:42:19;;;;;;;;;10.67;8.67;;;;;;;;5079370;27;45982;-81
2023/09/17 06:44:45;;;;;;;;;9.00;9.00;;;;;;;;5088132;27;45604;-81
2023/09/17 06:47:10;;;;;;;;;11.00;10.00;;;;;;;;5085118;27;45504;-81
2023/09/17 06:49:35;;;;;;;;;12.00;11.00;;;;;;;;5088705;27;45792;-82
2023/09/17 06:52:01;;;;;;;;;12.67;9.67;;;;;;;;5089590;27;45782;-80
2023/09/17 06:54:26;;;;;;;;;16.00;11.67;;;;;;;;5086417;27;46429;-80
2023/09/17 06:56:52;;;;;;;;;14.00;14.00;;;;;;;;5080480;27;45693;-82
2023/09/17 07:02:04;;;;;;;;;11.33;10.00;;;;;;;;5050938;27;45992;-81
2023/09/17 07:04:29;;;;;;;;;12.33;11.00;;;;;;;;5083674;27;47174;-81
2023/09/17 07:07:00;;;;;;;;;11.00;11.00;;;;;;;;5076603;27;45890;-83
2023/09/17 07:09:25;;;;;;;;;13.33;12.33;;;;;;;;5078457;27;45873;-82
2023/09/17 07:11:50;;;;;;;;;12.00;11.33;;;;;;;;5078111;27;45139;-83
2023/09/17 07:14:16;;;;;;;;;14.67;12.00;;;;;;;;5086962;27;45896;-82
2023/09/17 07:16:42;;;;;;;;;12.00;12.00;;;;;;;;5088552;27;45796;-83
2023/09/17 07:19:08;;;;;;;;;14.00;11.33;;;;;;;;5083686;27;45806;-81
2023/09/17 07:21:33;;;;;;;;;11.67;10.33;;;;;;;;5077917;27;45695;-84
2023/09/17 07:23:58;;;;;;;;;13.00;11.67;;;;;;;;5085656;27;46346;-82
2023/09/17 07:26:24;;;;;;;;;9.67;9.67;;;;;;;;5093020;27;45740;-83
2023/09/17 07:28:49;;;;;;;;;14.33;12.33;;;;;;;;5086313;27;45599;-83
2023/09/17 07:31:33;;;;;;;;;16.00;13.67;;;;;;;;5097995;27;46049;-83
2023/09/17 07:33:58;;;;;;;;;14.33;13.33;;;;;;;;5090782;27;46989;-83
2023/09/17 07:36:24;;;;;;;;;11.67;9.00;;;;;;;;5095905;27;45713;-83
2023/09/17 07:38:49;;;;;;;;;12.33;12.33;;;;;;;;5095720;27;45393;-83
2023/09/17 07:41:15;;;;;;;;;13.33;10.67;;;;;;;;5093484;27;45564;-84
2023/09/17 07:43:40;;;;;;;;;14.67;9.00;;;;;;;;5081177;27;47436;-84
2023/09/17 07:46:06;;;;;;;;;11.00;11.00;;;;;;;;5081122;27;45595;-82
2023/09/17 07:48:31;;;;;;;;;11.00;11.00;;;;;;;;5082350;27;45869;-83
2023/09/17 07:51:01;;;;;;;;;13.75;13.75;;;;;;;;5072135;27;46876;-83
2023/09/17 07:53:26;;;;;;;;;9.25;9.25;;;;;;;;5089900;27;47694;-84
2023/09/17 07:55:52;;;;;;;;;9.33;9.33;;;;;;;;5090634;27;45788;-81
2023/09/17 07:58:17;;;;;;;;;16.00;13.00;;;;;;;;5087101;27;45421;-80
2023/09/17 08:00:45;;;;;;;;;15.50;12.00;;;;;;;;5089428;27;45653;-81
2023/09/17 08:03:17;;;;;;;;;10.67;10.67;;;;;;;;5081726;27;45640;-80
2023/09/17 08:05:47;;;;;;;;;10.33;9.33;;;;;;;;5084633;27;45426;-82
2023/09/17 08:08:12;;;;;;;;;11.00;9.67;;;;;;;;5085234;27;45810;-79
2023/09/17 08:10:37;;;;;;;;;11.25;11.25;;;;;;;;5084389;27;45581;-81
2023/09/17 08:13:03;;;;;;;;;15.75;11.25;;;;;;;;5083858;27;45315;-79
2023/09/17 08:15:29;;;;;;;;;11.25;11.00;;;;;;;;5090231;27;45668;-80
2023/09/17 08:17:55;;;;;;;;;13.25;10.25;;;;;;;;5080791;27;45474;-79
2023/09/17 08:20:20;;;;;;;;;15.75;12.75;;;;;;;;5092316;27;45424;-79
2023/09/17 08:22:46;;;;;;;;;8.00;8.00;;;;;;;;5090716;27;46266;-79
2023/09/17 08:25:11;;;;;;;;;9.50;7.75;;;;;;;;5089360;27;45720;-79
2023/09/17 08:27:36;;;;;;;;;19.67;13.67;;;;;;;;5081642;27;45377;-79
2023/09/17 08:30:11;;;;;;;;;9.75;8.75;;;;;;;;5083802;27;46307;-80
2023/09/17 08:32:36;;;;;;;;;16.33;15.00;;;;;;;;5088406;27;46328;-80
2023/09/17 08:35:03;;;;;;;;;5.00;4.25;;;;;;;;5092225;27;45441;-82
2023/09/17 08:37:29;;;;;;;;;8.25;8.25;;;;;;;;5071467;27;45896;-80
2023/09/17 08:39:54;;;;;;;;;12.00;7.25;;;;;;;;5072949;27;46724;-81
2023/09/17 08:42:21;;;;;;;;;9.25;9.25;;;;;;;;5078794;27;46049;-81
2023/09/17 08:44:47;;;;;;;;;10.00;8.50;;;;;;;;5090164;27;45488;-82
2023/09/17 08:47:13;;;;;;;;;9.75;9.75;;;;;;;;5082561;27;45864;-80
2023/09/17 08:49:38;;;;;;;;;10.25;7.75;;;;;;;;5079098;27;46404;-81
2023/09/17 08:52:06;;;;;;;;;6.50;6.50;;;;;;;;5089286;27;45792;-81
2023/09/17 08:54:41;;;;;;;;;11.25;9.50;;;;;;;;5092297;27;45747;-82
2023/09/17 08:57:07;;;;;;;;;8.75;6.50;;;;;;;;5091869;27;45943;-79
2023/09/17 08:59:36;;;;;;;;;2.50;2.50;;;;;;;;5092004;27;45748;-81
2023/09/17 09:02:07;;;;;;;;;7.25;5.50;;;;;;;;5071307;27;47196;-80
2023/09/17 09:04:34;;;;;;;;;9.50;6.00;;;;;;;;5078088;27;45872;-79
2023/09/17 09:07:01;;;;;;;;;7.00;5.25;;;;;;;;5086158;27;45828;-81
2023/09/17 09:09:26;;;;;;;;;5.75;5.00;;;;;;;;5084445;27;45354;-80
2023/09/17 09:11:52;;;;;;;;;8.00;8.00;;;;;;;;5093220;27;45415;-79
2023/09/17 09:14:17;;;;;;;;;13.50;11.50;;;;;;;;5093300;27;46046;-81
2023/09/17 09:16:44;;;;;;;;;7.25;6.75;;;;;;;;5095908;27;45458;-81
2023/09/17 09:19:09;;;;;;;;;6.50;6.50;;;;;;;;5079110;27;45731;-81
2023/09/17 09:21:35;;;;;;;;;8.25;8.00;;;;;;;;5094486;27;48285;-81
2023/09/17 09:24:01;;;;;;;;;12.00;7.75;;;;;;;;5089452;27;45591;-81
2023/09/17 09:26:33;;;;;;;;;5.75;5.75;;;;;;;;5095119;27;45568;-81
2023/09/17 09:28:59;;;;;;;;;7.50;7.50;;;;;;;;5091844;27;45821;-80
2023/09/17 09:31:26;;;;;;;;;7.50;4.75;;;;;;;;5098402;27;45822;-80
2023/09/17 09:33:51;;;;;;;;;7.50;5.75;;;;;;;;5082538;27;45842;-81
2023/09/17 09:36:18;;;;;;;;;5.25;5.25;;;;;;;;5095753;27;45746;-80
2023/09/17 09:38:45;;;;;;;;;7.75;7.75;;;;;;;;5093794;27;45903;-81
2023/09/17 09:41:11;;;;;;;;;7.00;6.25;;;;;;;;5093527;27;47153;-80
2023/09/17 09:43:36;;;;;;;;;5.75;5.50;;;;;;;;5095756;27;45544;-79
2023/09/17 09:46:06;;;;;;;;;6.00;6.00;;;;;;;;5082027;27;45306;-80
2023/09/17 09:48:31;;;;;;;;;6.75;6.75;;;;;;;;5090880;27;46210;-81
2023/09/17 09:50:58;;;;;;;;;6.75;6.00;;;;;;;;5080902;27;46983;-81
2023/09/17 09:53:24;;;;;;;;;7.00;7.00;;;;;;;;5089190;27;45478;-81
2023/09/17 09:55:49;;;;;;;;;8.75;7.50;;;;;;;;5075990;27;45544;-81
2023/09/17 09:58:15;;;;;;;;;6.50;6.50;;;;;;;;5095458;27;45760;-81
2023/09/17 10:00:44;;;;;;;;;4.50;4.50;;;;;;;;5096538;27;47469;-82
2023/09/17 10:03:10;;;;;;;;;5.00;5.00;;;;;;;;5097575;27;45705;-83
2023/09/17 10:05:37;;;;;;;;;5.50;5.25;;;;;;;;5094141;27;45408;-81
2023/09/17 10:08:04;;;;;;;;;6.00;6.00;;;;;;;;5095085;27;45839;-81
2023/09/17 10:10:29;;;;;;;;;7.00;7.00;;;;;;;;5086041;27;47440;-82
2023/09/17 10:12:55;;;;;;;;;8.50;8.50;;;;;;;;5088823;27;45534;-82
2023/09/17 10:15:20;;;;;;;;;8.50;8.50;;;;;;;;5082015;27;45378;-81
2023/09/17 10:17:48;;;;;;;;;12.25;10.25;;;;;;;;5074670;27;45812;-81
2023/09/17 10:20:14;;;;;;;;;9.75;9.75;;;;;;;;5074412;27;46328;-81
2023/09/17 10:22:40;;;;;;;;;14.00;13.00;;;;;;;;5094522;27;45502;-81
2023/09/17 10:25:06;;;;;;;;;10.75;9.75;;;;;;;;5095008;27;45499;-81
2023/09/17 10:27:34;;;;;;;;;14.00;11.00;;;;;;;;5095107;27;46048;-82
2023/09/17 10:30:03;;;;;;;;;11.00;10.00;;;;;;;;5093292;27;45517;-81
2023/09/17 10:32:29;;;;;;;;;5.75;5.75;;;;;;;;5082435;27;45511;-80
2023/09/17 10:34:57;;;;;;;;;11.75;9.25;;;;;;;;5078863;27;45399;-81
2023/09/17 10:37:23;;;;;;;;;17.50;16.25;;;;;;;;5098045;27;45547;-81
2023/09/17 10:39:49;;;;;;;;;8.50;8.50;;;;;;;;5093749;27;45653;-82
2023/09/17 10:42:15;;;;;;;;;11.50;8.00;;;;;;;;5102195;27;45473;-81
2023/09/17 10:44:42;;;;;;;;;7.00;7.00;;;;;;;;5092820;27;45357;-81
2023/09/17 10:47:09;;;;;;;;;10.50;10.25;;;;;;;;5101394;27;45445;-82
2023/09/17 10:49:36;;;;;;;;;14.75;12.50;;;;;;;;5097022;27;46349;-80
2023/09/17 10:52:03;;;;;;;;;12.50;10.25;;;;;;;;5094869;27;45433;-82
2023/09/17 10:54:28;;;;;;;;;13.00;12.25;;;;;;;;5082019;27;45705;-81
2023/09/17 10:56:55;;;;;;;;;9.00;9.00;;;;;;;;5095335;27;45343;-80
2023/09/17 10:59:21;;;;;;;;;13.50;13.25;;;;;;;;5083605;27;45819;-82
2023/09/17 11:01:48;;;;;;;;;10.50;10.50;;;;;;;;5091487;27;45493;-80
2023/09/17 11:04:15;;;;;;;;;10.00;9.50;;;;;;;;5100215;27;45361;-81
2023/09/17 11:06:42;;;;;;;;;7.00;5.75;;;;;;;;5094558;27;45572;-79
2023/09/17 11:09:08;;;;;;;;;13.25;12.25;;;;;;;;5099087;27;46569;-80
2023/09/17 11:11:34;;;;;;;;;11.00;10.25;;;;;;;;5083421;27;44728;-82
2023/09/17 11:14:01;;;;;;;;;12.75;11.50;;;;;;;;5101814;27;45543;-81
2023/09/17 11:16:28;;;;;;;;;10.50;10.50;;;;;;;;5095817;27;46309;-81
2023/09/17 11:19:05;;;;;;;;;12.00;10.25;;;;;;;;5098594;27;46209;-81
2023/09/17 11:21:32;;;;;;;;;11.50;11.00;;;;;;;;5093107;27;45325;-81
2023/09/17 11:23:58;;;;;;;;;11.00;9.75;;;;;;;;5090940;27;45656;-80
2023/09/17 11:26:27;;;;;;;;;13.50;12.50;;;;;;;;5104818;27;45367;-81
2023/09/17 11:28:56;;;;;;;;;12.00;12.00;;;;;;;;5095684;27;45816;-81
2023/09/17 11:31:24;;;;;;;;;10.25;10.25;;;;;;;;5085695;27;45828;-81
2023/09/17 11:33:51;;;;;;;;;8.50;7.75;;;;;;;;5095926;27;45298;-81
2023/09/17 11:36:16;;;;;;;;;12.50;11.50;;;;;;;;5086437;27;45644;-82
2023/09/17 11:38:46;;;;;;;;;13.00;10.00;;;;;;;;5085839;27;45476;-81
2023/09/17 11:41:14;;;;;;;;;11.75;8.50;;;;;;;;5094273;27;45483;-80
2023/09/17 11:43:43;;;;;;;;;10.75;9.50;;;;;;;;5094402;27;46083;-84
2023/09/17 11:46:12;;;;;;;;;13.25;10.75;;;;;;;;5096176;27;45889;-86
2023/09/17 11:48:39;;;;;;;;;13.25;10.50;;;;;;;;5100039;27;45604;-82
2023/09/17 11:51:21;;;;;;;;;13.25;10.75;;;;;;;;5089836;27;45532;-80
2023/09/17 11:53:56;;;;;;;;;13.75;13.50;;;;;;;;5102560;27;44808;-83
2023/09/17 11:56:21;;;;;;;;;8.75;7.75;;;;;;;;5094451;27;45523;-82
2023/09/17 11:58:56;;;;;;;;;16.00;14.00;;;;;;;;5089077;27;47159;-83
2023/09/17 12:01:23;;;;;;;;;12.75;12.75;;;;;;;;5083606;27;45433;-81
2023/09/17 12:03:48;;;;;;;;;11.50;11.50;;;;;;;;5087768;27;45492;-82
2023/09/17 12:06:16;;;;;;;;;12.25;10.50;;;;;;;;5101304;27;45386;-81
2023/09/17 12:08:43;;;;;;;;;10.25;10.25;;;;;;;;5095453;27;45736;-81
2023/09/17 12:11:18;;;;;;;;;5.75;5.75;;;;;;;;5084163;27;44968;-81
2023/09/17 12:13:43;;;;;;;;;14.00;13.75;;;;;;;;5099080;27;45905;-81
2023/09/17 12:16:09;;;;;;;;;13.25;11.25;;;;;;;;5084075;27;45572;-82
2023/09/17 12:18:34;;;;;;;;;11.75;10.50;;;;;;;;5082744;27;45757;-83
2023/09/17 12:21:07;;;;;;;;;10.25;9.75;;;;;;;;5091501;27;45411;-83
2023/09/17 12:23:47;;;;;;;;;6.25;6.25;;;;;;;;5087940;27;45735;-82
2023/09/17 12:26:21;;;;;;;;;16.00;11.00;;;;;;;;5082587;27;45944;-82
2023/09/17 12:28:46;;;;;;;;;15.00;14.25;;;;;;;;5095502;27;45910;-82
2023/09/17 12:31:12;;;;;;;;;10.25;9.00;;;;;;;;5080432;27;45407;-82
2023/09/17 12:33:38;;;;;;;;;30.67;26.67;;;;;;;;5088417;27;45390;-81
2023/09/17 12:36:03;;;;;;;;;12.25;11.00;;;;;;;;5088122;27;45352;-82
2023/09/17 12:38:32;;;;;;;;;12.50;11.00;;;;;;;;5094330;27;46131;-84
2023/09/17 12:40:57;;;;;;;;;12.25;10.75;;;;;;;;5094982;27;45635;-82
2023/09/17 12:43:22;;;;;;;;;13.75;13.00;;;;;;;;5089261;27;45486;-82
2023/09/17 12:45:48;;;;;;;;;12.00;9.75;;;;;;;;5094553;27;46429;-82
2023/09/17 12:48:13;;;;;;;;;9.00;9.00;;;;;;;;5095985;27;45232;-82
2023/09/17 12:50:42;;;;;;;;;12.50;12.50;;;;;;;;5092568;27;44949;-81
2023/09/17 12:53:08;;;;;;;;;9.50;9.50;;;;;;;;5095762;27;45465;-82
2023/09/17 12:55:33;;;;;;;;;9.50;9.50;;;;;;;;5095299;27;45379;-80
2023/09/17 12:57:59;;;;;;;;;11.50;9.75;;;;;;;;5104120;27;45295;-82
2023/09/17 13:00:32;;;;;;;;;11.50;10.50;;;;;;;;5093222;27;45674;-85
2023/09/17 13:03:07;;;;;;;;;11.50;8.50;;;;;;;;5091788;27;45750;-82
2023/09/17 13:05:32;;;;;;;;;10.00;9.00;;;;;;;;5102819;27;45471;-82
2023/09/17 13:07:57;;;;;;;;;23.33;23.00;;;;;;;;5108520;27;45574;-81
2023/09/17 13:10:23;;;;;;;;;8.00;8.00;;;;;;;;5101492;27;45778;-81
2023/09/17 13:12:48;;;;;;;;;8.00;7.00;;;;;;;;5090856;27;45833;-81
2023/09/17 13:15:13;;;;;;;;;9.75;9.75;;;;;;;;5089893;27;45653;-82
2023/09/17 13:17:39;;;;;;;;;15.50;10.75;;;;;;;;5096544;27;46132;-81
2023/09/17 13:20:04;;;;;;;;;5.75;5.75;;;;;;;;5099037;27;45475;-82
2023/09/17 13:22:30;;;;;;;;;8.50;6.25;;;;;;;;5101095;27;45356;-81
2023/09/17 13:24:56;;;;;;;;;5.75;5.75;;;;;;;;5088595;27;45679;-81
2023/09/17 13:27:21;;;;;;;;;8.50;8.50;;;;;;;;5096798;27;45299;-80
2023/09/17 13:29:51;;;;;;;;;7.50;6.50;;;;;;;;5101560;27;45481;-82
2023/09/17 13:32:17;;;;;;;;;9.50;9.50;;;;;;;;5093532;27;44833;-81
2023/09/17 13:34:43;;;;;;;;;9.75;7.50;;;;;;;;5084770;27;45573;-81
2023/09/17 13:37:09;;;;;;;;;6.25;6.25;;;;;;;;5083367;27;46092;-81
2023/09/17 13:39:37;;;;;;;;;8.00;7.00;;;;;;;;5086193;27;45730;-80
2023/09/17 13:42:03;;;;;;;;;11.00;8.50;;;;;;;;5084808;27;46328;-82
2023/09/17 13:44:28;;;;;;;;;8.25;8.00;;;;;;;;5093271;27;45636;-79
2023/09/17 13:46:55;;;;;;;;;7.00;7.00;;;;;;;;5098491;27;46599;-79
2023/09/17 13:49:21;;;;;;;;;7.75;7.75;;;;;;;;5094096;27;45617;-81
2023/09/17 13:51:46;;;;;;;;;8.75;7.00;;;;;;;;5088297;27;45397;-81
2023/09/17 13:54:11;;;;;;;;;7.25;6.50;;;;;;;;5096152;27;45672;-82
2023/09/17 13:56:37;;;;;;;;;7.00;7.00;;;;;;;;5089502;27;45566;-82
2023/09/17 13:59:02;;;;;;;;;9.50;7.75;;;;;;;;5093662;27;45473;-80
2023/09/17 14:01:27;;;;;;;;;7.00;7.00;;;;;;;;5097645;27;44829;-81
2023/09/17 14:03:53;;;;;;;;;12.00;9.25;;;;;;;;5095647;27;46124;-82
2023/09/17 14:06:18;;;;;;;;;11.75;11.75;;;;;;;;5096509;27;45480;-83
2023/09/17 14:08:43;;;;;;;;;8.50;7.00;;;;;;;;5092435;27;45179;-81
2023/09/17 14:11:11;;;;;;;;;6.75;5.50;;;;;;;;5085637;27;45671;-82
2023/09/17 14:13:37;;;;;;;;;10.00;7.50;;;;;;;;5102918;27;45616;-81
2023/09/17 14:16:03;;;;;;;;;7.25;7.25;;;;;;;;5097550;27;45368;-80
2023/09/17 14:18:28;;;;;;;;;10.25;8.00;;;;;;;;5089253;27;45570;-80
2023/09/17 14:20:55;;;;;;;;;10.75;9.50;;;;;;;;5088615;27;44700;-82
2023/09/17 14:23:21;;;;;;;;;8.75;6.25;;;;;;;;5092736;27;45718;-81